Raleigh, North Dakota
Current Conditions -  °F | °C
As of 11:15 AM on Thursday 29 Jan 2015 (Local Time) from KY19 Reporting Station
Overcast Overcast  
Wind Chill: 15°   Ceiling: 1900
Heat Index: 27°   Visibility: 10mi
Dew Point: 19°   Wind: 14mph
Humidity: 74%   Direction: 340°NNW
Pressure: 30.49"   Gusts: 21mph
Location:  46.36°N, 101.31°W
Report Text: KY19 291815Z AUTO 34012G18KT 290V350 10SM OVC019 M03/M07 A3049 RMK AO2
Loading
Personal Weather Stations






























Interactive Weather Map New forecast layout! Learn more

10-Day Weather Forecast

Advertisements
Track Severe Weather on mobile